createdAt,value
2023-04-26T00:02:07.715Z,2.47
2023-04-26T00:04:40.494Z,2.90
2023-04-26T00:07:10.794Z,2.80
2023-04-26T00:09:42.120Z,2.33
2023-04-26T00:12:12.408Z,2.80
2023-04-26T00:14:42.490Z,3.07
2023-04-26T00:17:12.788Z,2.50
2023-04-26T00:19:45.378Z,2.80
2023-04-26T00:22:15.610Z,2.53
2023-04-26T00:24:45.591Z,2.70
2023-04-26T00:27:15.952Z,2.70
2023-04-26T00:29:46.227Z,2.93
2023-04-26T00:32:16.166Z,2.70
2023-04-26T00:34:48.794Z,2.90
2023-04-26T00:37:18.628Z,2.90
2023-04-26T00:39:48.932Z,3.00
2023-04-26T00:42:19.683Z,2.70
2023-04-26T00:44:50.524Z,3.00
2023-04-26T00:47:20.646Z,2.80
2023-04-26T00:49:53.501Z,3.03
2023-04-26T00:52:23.772Z,2.83
2023-04-26T00:54:53.912Z,3.23
2023-04-26T00:57:24.617Z,2.43
2023-04-26T00:59:54.699Z,2.23
2023-04-26T01:02:24.783Z,3.40
2023-04-26T01:04:57.428Z,3.20
2023-04-26T01:07:27.568Z,2.80
2023-04-26T01:09:59.834Z,2.50
2023-04-26T01:12:30.712Z,2.97
2023-04-26T01:15:01.347Z,2.63
2023-04-26T01:17:31.337Z,2.87
2023-04-26T01:20:04.155Z,2.87
2023-04-26T01:22:38.637Z,2.70
2023-04-26T01:25:10.420Z,3.00
2023-04-26T01:27:40.470Z,2.83
2023-04-26T01:30:12.998Z,2.63
2023-04-26T01:32:43.057Z,3.30
2023-04-26T01:35:13.089Z,2.80
2023-04-26T01:37:45.826Z,3.13
2023-04-26T01:40:16.955Z,2.90
2023-04-26T01:42:46.792Z,2.60
2023-04-26T01:45:17.625Z,2.73
2023-04-26T01:47:48.098Z,2.90
2023-04-26T01:50:18.283Z,2.60
2023-04-26T01:52:50.766Z,2.87
2023-04-26T01:55:20.602Z,2.80
2023-04-26T01:57:50.464Z,2.70
2023-04-26T02:00:20.962Z,3.30
2023-04-26T02:02:51.127Z,3.07
2023-04-26T02:05:21.033Z,2.90
2023-04-26T02:07:53.847Z,2.90
2023-04-26T02:10:23.652Z,2.70
2023-04-26T02:12:53.657Z,2.43
2023-04-26T02:15:23.830Z,2.70
2023-04-26T02:17:54.217Z,3.27
2023-04-26T02:20:24.456Z,2.87
2023-04-26T02:22:57.157Z,2.77
2023-04-26T02:25:27.397Z,3.10
2023-04-26T02:27:57.303Z,2.90
2023-04-26T02:30:27.151Z,3.10
2023-04-26T02:32:57.718Z,3.40
2023-04-26T02:35:28.013Z,3.07
2023-04-26T02:38:00.640Z,3.07
2023-04-26T02:40:30.829Z,3.07
2023-04-26T02:43:00.773Z,3.30
2023-04-26T02:45:30.702Z,3.93
2023-04-26T02:48:00.853Z,3.20
2023-04-26T02:50:30.696Z,2.57
2023-04-26T02:53:03.777Z,3.30
2023-04-26T02:55:33.671Z,3.23
2023-04-26T02:58:03.708Z,3.20
2023-04-26T03:00:34.537Z,3.17
2023-04-26T03:03:04.893Z,3.27
2023-04-26T03:05:34.937Z,3.47
2023-04-26T03:08:08.084Z,3.57
2023-04-26T03:10:37.868Z,3.33
2023-04-26T03:13:07.865Z,3.57
2023-04-26T03:15:37.790Z,3.47
2023-04-26T03:18:07.879Z,3.67
2023-04-26T03:20:38.024Z,3.73
2023-04-26T03:23:10.756Z,3.20
2023-04-26T03:25:40.700Z,3.40
2023-04-26T03:28:10.666Z,3.50
2023-04-26T03:30:40.561Z,3.47
2023-04-26T03:33:10.524Z,3.73
2023-04-26T03:35:40.411Z,3.83
2023-04-26T03:38:13.248Z,3.40
2023-04-26T03:40:43.148Z,3.80
2023-04-26T03:43:13.042Z,3.90
2023-04-26T03:45:43.056Z,3.80
2023-04-26T03:48:13.040Z,3.20
2023-04-26T03:50:45.279Z,4.33
2023-04-26T03:53:17.997Z,4.07
2023-04-26T03:55:48.171Z,3.70
2023-04-26T03:58:18.581Z,4.33
2023-04-26T04:00:48.477Z,4.27
2023-04-26T04:03:21.398Z,4.63
2023-04-26T04:05:51.659Z,3.90
2023-04-26T04:08:24.120Z,3.90
2023-04-26T04:10:54.088Z,3.83
2023-04-26T04:13:23.977Z,3.90
2023-04-26T04:15:54.623Z,4.10
2023-04-26T04:18:24.612Z,4.67
2023-04-26T04:20:54.596Z,4.47
2023-04-26T04:23:27.796Z,4.33
2023-04-26T04:25:58.133Z,4.07
2023-04-26T04:28:28.213Z,4.47
2023-04-26T04:30:58.441Z,4.20
2023-04-26T04:33:28.843Z,3.90
2023-04-26T04:35:58.853Z,4.00
2023-04-26T04:38:31.960Z,4.47
2023-04-26T04:41:01.937Z,5.13
2023-04-26T04:43:31.885Z,4.53
2023-04-26T04:46:01.854Z,4.23
2023-04-26T04:48:31.774Z,4.30
2023-04-26T04:51:02.570Z,4.50
2023-04-26T04:53:35.170Z,3.90
2023-04-26T04:56:08.986Z,4.50
2023-04-26T04:58:39.310Z,4.23
2023-04-26T05:01:09.247Z,4.20
2023-04-26T05:03:39.682Z,3.80
2023-04-26T05:06:10.085Z,4.30
2023-04-26T05:08:42.685Z,4.53
2023-04-26T05:11:12.515Z,4.50
2023-04-26T05:13:42.339Z,4.73
2023-04-26T05:16:12.218Z,4.43
2023-04-26T05:18:42.091Z,4.50
2023-04-26T05:21:12.272Z,4.40
2023-04-26T05:23:44.959Z,4.50
2023-04-26T05:26:18.283Z,5.10
2023-04-26T05:28:48.322Z,4.70
2023-04-26T05:31:18.386Z,4.77
2023-04-26T05:33:48.280Z,4.97
2023-04-26T05:36:18.397Z,4.87
2023-04-26T05:38:51.288Z,5.73
2023-04-26T05:41:21.368Z,4.67
2023-04-26T05:43:51.502Z,4.33
2023-04-26T05:46:21.894Z,5.03
2023-04-26T05:48:52.296Z,5.10
2023-04-26T05:51:22.574Z,5.33
2023-04-26T05:53:55.422Z,5.83
2023-04-26T05:56:25.991Z,5.70
2023-04-26T05:58:56.219Z,6.60
2023-04-26T06:01:26.109Z,6.93
2023-04-26T06:03:59.883Z,8.37
2023-04-26T06:06:32.345Z,9.37
2023-04-26T06:09:05.080Z,9.27
2023-04-26T06:11:35.031Z,9.77
2023-04-26T06:14:05.802Z,9.97
2023-04-26T06:16:36.507Z,10.03
2023-04-26T06:19:06.601Z,8.80
2023-04-26T06:21:36.521Z,9.97
2023-04-26T06:24:10.381Z,9.63
2023-04-26T06:26:40.231Z,9.53
2023-04-26T06:29:10.122Z,8.47
2023-04-26T06:31:40.268Z,8.53
2023-04-26T06:34:10.378Z,8.77
2023-04-26T06:36:40.290Z,8.73
2023-04-26T06:39:12.774Z,8.67
2023-04-26T06:41:43.656Z,8.87
2023-04-26T06:44:13.600Z,8.13
2023-04-26T06:46:43.617Z,9.17
2023-04-26T06:49:13.620Z,8.43
2023-04-26T06:51:43.745Z,5.83
2023-04-26T06:54:16.572Z,6.43
2023-04-26T06:56:46.426Z,6.73
2023-04-26T06:59:16.334Z,6.57
2023-04-26T07:01:46.303Z,6.17
2023-04-26T07:04:18.531Z,7.60
2023-04-26T07:06:48.741Z,7.53
2023-04-26T07:09:21.369Z,7.30
2023-04-26T07:11:51.355Z,7.83
2023-04-26T07:14:21.378Z,7.10
2023-04-26T07:16:51.498Z,7.73
2023-04-26T07:19:21.305Z,7.80
2023-04-26T07:21:51.260Z,7.80
2023-04-26T07:24:23.782Z,6.80
2023-04-26T07:26:53.654Z,6.70
2023-04-26T07:29:23.572Z,6.80
2023-04-26T07:31:53.479Z,7.07
2023-04-26T07:34:23.386Z,5.87
2023-04-26T07:36:53.399Z,5.53
2023-04-26T07:39:26.028Z,5.10
2023-04-26T07:41:56.247Z,4.97
2023-04-26T07:44:26.125Z,5.00
2023-04-26T07:46:56.163Z,5.17
2023-04-26T07:49:26.139Z,5.60
2023-04-26T07:51:56.696Z,5.40
2023-04-26T07:54:29.254Z,3.40
2023-04-26T07:56:59.176Z,5.07
2023-04-26T07:59:29.033Z,4.20
2023-04-26T08:01:59.056Z,3.07
2023-04-26T08:04:38.240Z,2.60
2023-04-26T08:07:08.420Z,1.97
2023-04-26T08:09:41.097Z,2.40
2023-04-26T08:12:11.521Z,2.47
2023-04-26T08:14:41.838Z,2.87
2023-04-26T08:17:12.733Z,2.90
2023-04-26T08:19:42.864Z,3.17
2023-04-26T08:22:12.930Z,3.10
2023-04-26T08:24:51.203Z,3.17
2023-04-26T08:27:22.092Z,2.70
2023-04-26T08:29:52.201Z,2.30
2023-04-26T08:32:22.367Z,3.13
2023-04-26T08:34:52.219Z,2.30
2023-04-26T08:37:22.164Z,2.63
2023-04-26T08:39:54.628Z,2.60
2023-04-26T08:42:29.411Z,3.23
2023-04-26T08:45:03.687Z,2.80
2023-04-26T08:47:41.617Z,2.37
2023-04-26T08:50:15.125Z,3.43
2023-04-26T08:52:46.235Z,2.43
2023-04-26T08:55:20.360Z,2.30
2023-04-26T08:57:51.646Z,2.33
2023-04-26T09:00:23.642Z,2.20
2023-04-26T09:02:55.307Z,2.10
2023-04-26T09:05:27.226Z,3.13
2023-04-26T09:08:00.905Z,2.40
2023-04-26T09:10:34.081Z,2.57
2023-04-26T09:13:04.043Z,3.30
2023-04-26T09:15:33.966Z,2.53
2023-04-26T09:18:22.341Z,2.67
2023-04-26T09:21:07.175Z,2.27
2023-04-26T09:23:37.355Z,2.00
2023-04-26T09:26:23.100Z,2.50
2023-04-26T09:28:53.483Z,1.90
2023-04-26T09:31:41.231Z,2.07
2023-04-26T09:34:12.579Z,1.93
2023-04-26T09:36:53.909Z,2.20
2023-04-26T09:39:34.616Z,1.80
2023-04-26T09:42:07.958Z,1.90
2023-04-26T09:44:38.340Z,2.10
2023-04-26T09:47:10.609Z,2.20
2023-04-26T09:49:50.616Z,2.00
2023-04-26T09:52:22.044Z,2.27
2023-04-26T09:54:54.603Z,2.07
2023-04-26T09:57:27.129Z,1.53
2023-04-26T09:59:58.014Z,1.90
2023-04-26T10:02:30.401Z,1.80
2023-04-26T10:05:02.398Z,1.97
2023-04-26T10:07:33.667Z,1.83
2023-04-26T10:10:05.140Z,1.90
2023-04-26T10:12:37.882Z,1.90
2023-04-26T10:15:11.210Z,2.50
2023-04-26T10:17:41.525Z,1.90
2023-04-26T10:20:15.262Z,1.97
2023-04-26T10:22:49.213Z,1.60
2023-04-26T10:25:19.114Z,2.10
2023-04-26T10:27:55.962Z,1.70
2023-04-26T10:30:26.286Z,2.37
2023-04-26T10:33:20.795Z,2.20
2023-04-26T10:36:11.391Z,2.23
2023-04-26T10:38:43.158Z,2.27
2023-04-26T10:41:32.563Z,1.87
2023-04-26T10:44:49.957Z,2.27
2023-04-26T10:47:29.026Z,2.17
2023-04-26T10:50:07.535Z,2.20
2023-04-26T10:52:38.122Z,2.03
2023-04-26T10:55:10.510Z,2.03
2023-04-26T10:57:51.706Z,2.40
2023-04-26T11:00:42.568Z,2.53
2023-04-26T11:03:15.732Z,2.60
2023-04-26T11:05:57.262Z,2.27
2023-04-26T11:08:32.199Z,1.83
2023-04-26T11:11:10.018Z,2.47
2023-04-26T11:13:41.824Z,2.33
2023-04-26T11:16:16.000Z,1.90
2023-04-26T11:18:47.853Z,1.93
2023-04-26T11:21:19.819Z,2.30
2023-04-26T11:23:56.531Z,2.20
2023-04-26T11:26:27.019Z,3.20
2023-04-26T11:28:56.935Z,3.60
2023-04-26T11:31:29.493Z,2.57
2023-04-26T11:34:06.906Z,2.10
2023-04-26T11:36:39.752Z,2.73
2023-04-26T11:39:13.057Z,3.10
2023-04-26T11:41:44.103Z,2.77
2023-04-26T11:44:14.924Z,1.90
2023-04-26T11:46:48.746Z,1.97
2023-04-26T11:49:20.295Z,2.53
2023-04-26T11:51:51.992Z,2.40
2023-04-26T11:54:32.685Z,2.37
2023-04-26T11:57:03.051Z,2.07
2023-04-26T11:59:34.215Z,2.13
2023-04-26T12:02:10.400Z,2.23
2023-04-26T12:04:41.623Z,2.30
2023-04-26T12:07:11.836Z,2.40
2023-04-26T12:09:44.458Z,2.40
2023-04-26T12:12:14.554Z,2.43
2023-04-26T12:14:45.900Z,2.63
2023-04-26T12:17:18.789Z,3.37
2023-04-26T12:19:53.353Z,2.73
2023-04-26T12:22:24.706Z,2.90
2023-04-26T12:25:08.271Z,2.70
2023-04-26T12:27:39.839Z,2.30
2023-04-26T12:30:11.523Z,2.93
2023-04-26T12:32:44.698Z,2.93
2023-04-26T12:35:14.650Z,2.97
2023-04-26T12:37:44.508Z,2.77
2023-04-26T12:40:16.516Z,2.60
2023-04-26T12:42:51.301Z,2.50
2023-04-26T12:45:22.420Z,2.53
2023-04-26T12:47:55.034Z,2.40
2023-04-26T12:50:25.028Z,2.50
2023-04-26T12:52:55.370Z,2.20
2023-04-26T12:55:25.383Z,2.60
2023-04-26T12:57:58.385Z,2.47
2023-04-26T13:00:28.255Z,3.30
2023-04-26T13:03:01.031Z,2.60
2023-04-26T13:05:32.497Z,3.50
2023-04-26T13:08:02.826Z,2.67
2023-04-26T13:10:33.181Z,2.80
2023-04-26T13:13:03.260Z,2.50
2023-04-26T13:15:33.236Z,3.00
2023-04-26T13:18:06.600Z,3.13
2023-04-26T13:20:37.214Z,2.80
2023-04-26T13:23:07.239Z,2.30
2023-04-26T13:25:37.075Z,2.90
2023-04-26T13:28:08.035Z,2.60
2023-04-26T13:30:38.189Z,2.93
2023-04-26T13:33:11.287Z,2.83
2023-04-26T13:35:41.378Z,2.93
2023-04-26T13:38:11.629Z,3.10
2023-04-26T13:40:41.626Z,2.93
2023-04-26T13:43:11.931Z,3.30
2023-04-26T13:45:41.805Z,2.93
2023-04-26T13:48:14.769Z,3.00
2023-04-26T13:50:44.874Z,3.40
2023-04-26T13:53:15.143Z,3.07
2023-04-26T13:55:45.093Z,3.30
2023-04-26T13:58:15.284Z,2.70
2023-04-26T14:00:45.627Z,3.07
2023-04-26T14:03:18.532Z,3.70
2023-04-26T14:05:56.834Z,3.10
2023-04-26T14:08:26.933Z,2.87
2023-04-26T14:10:56.954Z,2.80
2023-04-26T14:13:26.972Z,2.77
2023-04-26T14:15:58.784Z,2.60
2023-04-26T14:18:31.433Z,3.23
2023-04-26T14:21:01.537Z,2.90
2023-04-26T14:23:31.480Z,2.33
2023-04-26T14:26:01.508Z,2.33
2023-04-26T14:28:33.423Z,2.50
2023-04-26T14:31:03.531Z,2.93
2023-04-26T14:33:36.107Z,2.80
2023-04-26T14:36:06.379Z,3.10
2023-04-26T14:38:36.589Z,3.17
2023-04-26T14:41:07.062Z,2.90
2023-04-26T14:43:37.031Z,3.20
2023-04-26T14:46:08.821Z,3.03
2023-04-26T14:48:41.348Z,3.63
2023-04-26T14:51:11.378Z,3.13
2023-04-26T14:53:41.606Z,3.17
2023-04-26T14:56:11.525Z,2.90
2023-04-26T14:58:41.482Z,2.77
2023-04-26T15:01:11.491Z,2.90
2023-04-26T15:03:44.322Z,2.80
2023-04-26T15:06:14.314Z,2.90
2023-04-26T15:08:44.283Z,3.10
2023-04-26T15:11:14.531Z,2.57
2023-04-26T15:13:44.349Z,2.90
2023-04-26T15:16:14.491Z,3.03
2023-04-26T15:18:47.173Z,2.60
2023-04-26T15:21:20.254Z,2.40
2023-04-26T15:23:50.138Z,2.83
2023-04-26T15:26:20.359Z,3.17
2023-04-26T15:28:50.254Z,3.30
2023-04-26T15:31:20.100Z,2.97
2023-04-26T15:33:52.741Z,3.80
2023-04-26T15:36:22.880Z,3.60
2023-04-26T15:38:53.326Z,3.20
2023-04-26T15:41:23.582Z,2.90
2023-04-26T15:43:56.352Z,3.20
2023-04-26T15:46:26.451Z,3.60
2023-04-26T15:48:59.012Z,3.53
2023-04-26T15:51:28.977Z,4.07
2023-04-26T15:53:59.020Z,3.60
2023-04-26T15:56:29.480Z,3.37
2023-04-26T15:58:59.543Z,3.60
2023-04-26T16:01:33.415Z,3.30
2023-04-26T16:04:06.109Z,3.30
2023-04-26T16:06:36.251Z,3.23
2023-04-26T16:09:23.926Z,3.23
2023-04-26T16:11:55.620Z,3.30
2023-04-26T16:14:31.861Z,2.63
2023-04-26T16:17:01.965Z,3.10
2023-04-26T16:19:34.610Z,2.87
2023-04-26T16:22:04.533Z,3.23
2023-04-26T16:24:34.471Z,2.97
2023-04-26T16:27:14.965Z,2.83
2023-04-26T16:29:45.312Z,3.27
2023-04-26T16:32:15.233Z,2.93
2023-04-26T16:34:48.823Z,2.50
2023-04-26T16:37:18.766Z,2.77
2023-04-26T16:39:48.842Z,2.60
2023-04-26T16:42:18.961Z,2.97
2023-04-26T16:44:49.132Z,2.87
2023-04-26T16:47:19.038Z,2.90
2023-04-26T16:49:51.679Z,2.87
2023-04-26T16:52:21.630Z,2.70
2023-04-26T16:54:51.437Z,2.93
2023-04-26T16:57:21.295Z,2.97
2023-04-26T16:59:51.664Z,2.93
2023-04-26T17:02:21.728Z,2.90
2023-04-26T17:04:54.932Z,2.70
2023-04-26T17:07:25.138Z,2.73
2023-04-26T17:09:56.488Z,2.53
2023-04-26T17:12:26.414Z,2.83
2023-04-26T17:14:56.743Z,2.70
2023-04-26T17:17:27.721Z,3.00
2023-04-26T17:20:00.313Z,2.60
2023-04-26T17:22:30.470Z,2.90
2023-04-26T17:25:00.451Z,2.83
2023-04-26T17:27:30.515Z,3.00
2023-04-26T17:30:00.590Z,3.10
2023-04-26T17:32:30.597Z,2.87
2023-04-26T17:35:04.626Z,3.03
2023-04-26T17:37:34.455Z,3.10
2023-04-26T17:40:06.255Z,2.73
2023-04-26T17:42:37.861Z,2.80
2023-04-26T17:45:10.408Z,2.90
2023-04-26T17:47:42.573Z,2.83
2023-04-26T17:50:15.874Z,2.80
2023-04-26T17:52:46.094Z,2.60
2023-04-26T17:55:16.388Z,2.87
2023-04-26T17:57:47.062Z,2.47
2023-04-26T18:00:20.786Z,3.30
2023-04-26T18:02:50.709Z,3.10
2023-04-26T18:05:24.707Z,3.00
2023-04-26T18:07:54.734Z,2.90
2023-04-26T18:10:25.021Z,2.87
2023-04-26T18:12:55.008Z,2.70
2023-04-26T18:15:25.273Z,3.10
2023-04-26T18:17:55.683Z,2.80
2023-04-26T18:20:28.462Z,3.30
2023-04-26T18:22:58.616Z,3.10
2023-04-26T18:25:28.888Z,3.27
2023-04-26T18:27:58.953Z,3.30
2023-04-26T18:30:28.949Z,2.83
2023-04-26T18:32:59.053Z,3.10
2023-04-26T18:35:31.697Z,3.50
2023-04-26T18:38:01.578Z,3.27
2023-04-26T18:40:31.623Z,3.50
2023-04-26T18:43:02.183Z,4.07
2023-04-26T18:45:32.432Z,3.60
2023-04-26T18:48:02.406Z,3.30
2023-04-26T18:50:35.027Z,3.33
2023-04-26T18:53:04.920Z,2.97
2023-04-26T18:55:34.856Z,3.60
2023-04-26T18:58:04.815Z,2.90
2023-04-26T19:00:35.420Z,3.27
2023-04-26T19:03:05.569Z,3.27
2023-04-26T19:05:38.245Z,2.80
2023-04-26T19:08:09.220Z,3.80
2023-04-26T19:10:39.227Z,2.90
2023-04-26T19:13:09.190Z,3.23
2023-04-26T19:15:39.304Z,3.23
2023-04-26T19:18:09.361Z,4.07
2023-04-26T19:20:42.232Z,3.27
2023-04-26T19:23:12.737Z,3.07
2023-04-26T19:25:42.639Z,3.37
2023-04-26T19:28:12.664Z,3.67
2023-04-26T19:30:42.766Z,3.20
2023-04-26T19:33:13.761Z,3.47
2023-04-26T19:35:46.533Z,3.40
2023-04-26T19:38:16.702Z,3.40
2023-04-26T19:40:46.776Z,3.57
2023-04-26T19:43:17.510Z,3.70
2023-04-26T19:45:47.924Z,3.27
2023-04-26T19:48:17.949Z,3.47
2023-04-26T19:50:50.642Z,3.03
2023-04-26T19:53:20.891Z,3.27
2023-04-26T19:55:51.035Z,3.13
2023-04-26T19:58:21.012Z,3.20
2023-04-26T20:00:51.329Z,3.70
2023-04-26T20:03:21.509Z,4.20
2023-04-26T20:05:54.121Z,3.77
2023-04-26T20:08:24.078Z,4.10
2023-04-26T20:10:54.198Z,3.37
2023-04-26T20:13:24.339Z,4.30
2023-04-26T20:15:54.257Z,3.40
2023-04-26T20:18:24.166Z,3.73
2023-04-26T20:20:56.680Z,3.50
2023-04-26T20:23:26.538Z,3.93
2023-04-26T20:25:56.423Z,3.33
2023-04-26T20:28:26.913Z,3.80
2023-04-26T20:30:57.063Z,3.73
2023-04-26T20:33:27.064Z,3.70
2023-04-26T20:35:59.632Z,3.57
2023-04-26T20:38:29.620Z,3.57
2023-04-26T20:40:59.991Z,3.80
2023-04-26T20:43:29.838Z,4.40
2023-04-26T20:45:59.718Z,3.90
2023-04-26T20:48:29.863Z,4.03
2023-04-26T20:51:03.113Z,3.47
2023-04-26T20:53:33.113Z,3.70
2023-04-26T20:56:03.725Z,2.97
2023-04-26T20:58:33.901Z,3.67
2023-04-26T21:01:05.775Z,2.93
2023-04-26T21:03:39.382Z,3.80
2023-04-26T21:06:12.382Z,3.90
2023-04-26T21:08:43.254Z,3.23
2023-04-26T21:11:13.221Z,4.17
2023-04-26T21:13:43.107Z,3.70
2023-04-26T21:16:13.007Z,3.77
2023-04-26T21:18:43.030Z,3.53
2023-04-26T21:21:15.520Z,4.10
2023-04-26T21:23:45.763Z,3.63
2023-04-26T21:26:15.897Z,3.77
2023-04-26T21:28:47.655Z,4.17
2023-04-26T21:31:17.690Z,3.93
2023-04-26T21:33:47.657Z,4.00
2023-04-26T21:36:20.174Z,4.57
2023-04-26T21:38:50.216Z,4.10
2023-04-26T21:41:20.386Z,4.37
2023-04-26T21:43:50.596Z,4.10
2023-04-26T21:46:20.667Z,3.87
2023-04-26T21:48:50.992Z,3.60
2023-04-26T21:51:23.433Z,3.43
2023-04-26T21:53:53.570Z,3.40
2023-04-26T21:56:24.297Z,4.20
2023-04-26T21:58:54.726Z,4.07
2023-04-26T22:01:25.313Z,4.10
2023-04-26T22:03:57.924Z,3.73
2023-04-26T22:06:30.556Z,3.53
2023-04-26T22:09:00.498Z,3.90
2023-04-26T22:11:30.404Z,3.80
2023-04-26T22:14:01.795Z,3.73
2023-04-26T22:16:32.244Z,4.13
2023-04-26T22:19:04.559Z,3.67
2023-04-26T22:21:37.436Z,4.00
2023-04-26T22:24:10.426Z,4.13
2023-04-26T22:26:40.238Z,3.90
2023-04-26T22:29:10.510Z,3.47
2023-04-26T22:31:40.559Z,4.03
2023-04-26T22:34:10.750Z,3.60
2023-04-26T22:36:43.348Z,4.17
2023-04-26T22:39:13.595Z,4.13
2023-04-26T22:41:43.621Z,4.50
2023-04-26T22:44:13.463Z,4.27
2023-04-26T22:46:43.389Z,4.77
2023-04-26T22:49:13.559Z,4.30
2023-04-26T22:51:57.257Z,4.93
2023-04-26T22:54:36.232Z,4.47
2023-04-26T22:57:07.595Z,4.60
2023-04-26T22:59:37.518Z,4.40
2023-04-26T23:02:07.738Z,4.80
2023-04-26T23:04:37.590Z,4.70
2023-04-26T23:07:13.383Z,4.40
2023-04-26T23:09:43.327Z,4.70
2023-04-26T23:12:13.716Z,4.80
2023-04-26T23:14:43.679Z,4.50
2023-04-26T23:17:14.540Z,4.30
2023-04-26T23:19:44.631Z,4.60
2023-04-26T23:22:17.934Z,4.60
2023-04-26T23:24:47.837Z,4.17
2023-04-26T23:27:19.301Z,4.17
2023-04-26T23:29:49.642Z,4.30
2023-04-26T23:32:19.588Z,4.20
2023-04-26T23:34:49.514Z,4.33
2023-04-26T23:37:22.373Z,4.23
2023-04-26T23:39:52.341Z,4.70
2023-04-26T23:42:22.565Z,3.90
2023-04-26T23:44:52.567Z,4.07
2023-04-26T23:47:22.464Z,4.00
2023-04-26T23:49:52.521Z,4.47
2023-04-26T23:52:25.078Z,4.37
2023-04-26T23:54:55.074Z,4.57
2023-04-26T23:57:25.421Z,4.30
2023-04-26T23:59:55.860Z,4.37
